sensor_id;sensor_type;location;lat;lon;timestamp;P1;durP1;ratioP1;P2;durP2;ratioP2
27957;SDS011;15295;42.658;23.374;2023-07-13T18:32:01;23.65;;;9.70;;
27957;SDS011;15295;42.658;23.374;2023-07-13T19:26:35;21.30;;;10.23;;
27957;SDS011;15295;42.658;23.374;2023-07-13T19:31:37;20.38;;;9.38;;
27957;SDS011;15295;42.658;23.374;2023-07-13T19:34:14;18.30;;;8.45;;
27957;SDS011;15295;42.658;23.374;2023-07-13T19:39:49;20.70;;;9.70;;
27957;SDS011;15295;42.658;23.374;2023-07-13T19:42:47;19.73;;;8.20;;
27957;SDS011;15295;42.658;23.374;2023-07-13T19:45:33;18.95;;;8.95;;
27957;SDS011;15295;42.658;23.374;2023-07-13T19:48:02;18.90;;;7.95;;
27957;SDS011;15295;42.658;23.374;2023-07-13T19:50:36;13.63;;;7.43;;
27957;SDS011;15295;42.658;23.374;2023-07-13T19:53:11;24.92;;;8.82;;
27957;SDS011;15295;42.658;23.374;2023-07-13T19:56:04;23.15;;;8.95;;
27957;SDS011;15295;42.658;23.374;2023-07-13T19:58:33;17.65;;;8.35;;
27957;SDS011;15295;42.658;23.374;2023-07-13T20:01:02;17.95;;;7.95;;
27957;SDS011;15295;42.658;23.374;2023-07-13T20:03:40;20.85;;;8.57;;
27957;SDS011;15295;42.658;23.374;2023-07-13T20:07:08;18.33;;;9.43;;
27957;SDS011;15295;42.658;23.374;2023-07-13T20:09:44;18.20;;;8.63;;
27957;SDS011;15295;42.658;23.374;2023-07-13T20:12:18;17.23;;;8.07;;
27957;SDS011;15295;42.658;23.374;2023-07-13T20:15:12;16.88;;;8.15;;
27957;SDS011;15295;42.658;23.374;2023-07-13T20:17:59;18.58;;;8.48;;
27957;SDS011;15295;42.658;23.374;2023-07-13T20:21:00;20.30;;;9.13;;
27957;SDS011;15295;42.658;23.374;2023-07-13T20:23:42;20.92;;;9.05;;
27957;SDS011;15295;42.658;23.374;2023-07-13T20:31:24;15.45;;;8.65;;
27957;SDS011;15295;42.658;23.374;2023-07-13T20:37:02;18.52;;;9.70;;
27957;SDS011;15295;42.658;23.374;2023-07-13T20:39:56;20.70;;;9.40;;
27957;SDS011;15295;42.658;23.374;2023-07-13T20:42:56;17.75;;;9.15;;
27957;SDS011;15295;42.658;23.374;2023-07-13T20:45:46;22.45;;;9.88;;
27957;SDS011;15295;42.658;23.374;2023-07-13T20:48:47;15.70;;;8.93;;
27957;SDS011;15295;42.658;23.374;2023-07-13T20:51:36;18.77;;;9.43;;
27957;SDS011;15295;42.658;23.374;2023-07-13T21:01:33;14.65;;;8.25;;
27957;SDS011;15295;42.658;23.374;2023-07-13T21:04:38;24.15;;;8.00;;
27957;SDS011;15295;42.658;23.374;2023-07-13T21:07:31;15.27;;;7.75;;
27957;SDS011;15295;42.658;23.374;2023-07-13T21:10:11;14.45;;;6.75;;
27957;SDS011;15295;42.658;23.374;2023-07-13T21:16:25;12.30;;;6.25;;
27957;SDS011;15295;42.658;23.374;2023-07-13T21:19:58;14.05;;;6.55;;
27957;SDS011;15295;42.658;23.374;2023-07-13T21:23:00;11.68;;;6.13;;
27957;SDS011;15295;42.658;23.374;2023-07-13T21:25:58;16.02;;;7.35;;
27957;SDS011;15295;42.658;23.374;2023-07-13T21:29:29;9.07;;;6.28;;
27957;SDS011;15295;42.658;23.374;2023-07-13T21:32:19;12.25;;;6.80;;
27957;SDS011;15295;42.658;23.374;2023-07-13T21:40:34;13.18;;;7.00;;
27957;SDS011;15295;42.658;23.374;2023-07-13T21:49:35;16.63;;;7.72;;
27957;SDS011;15295;42.658;23.374;2023-07-13T21:52:57;15.07;;;7.05;;
27957;SDS011;15295;42.658;23.374;2023-07-13T21:58:55;14.27;;;6.75;;
27957;SDS011;15295;42.658;23.374;2023-07-13T22:02:14;11.07;;;6.50;;
27957;SDS011;15295;42.658;23.374;2023-07-13T22:04:47;13.88;;;6.25;;
27957;SDS011;15295;42.658;23.374;2023-07-13T22:18:49;13.80;;;6.45;;
27957;SDS011;15295;42.658;23.374;2023-07-13T22:21:42;16.20;;;7.18;;
27957;SDS011;15295;42.658;23.374;2023-07-13T22:27:57;11.48;;;7.15;;
27957;SDS011;15295;42.658;23.374;2023-07-13T22:30:42;16.70;;;7.07;;
27957;SDS011;15295;42.658;23.374;2023-07-13T22:34:01;13.35;;;6.80;;
27957;SDS011;15295;42.658;23.374;2023-07-13T22:57:02;14.15;;;7.63;;
27957;SDS011;15295;42.658;23.374;2023-07-13T23:00:00;18.05;;;7.22;;
27957;SDS011;15295;42.658;23.374;2023-07-13T23:02:55;12.85;;;7.30;;
27957;SDS011;15295;42.658;23.374;2023-07-13T23:06:25;15.27;;;8.30;;
27957;SDS011;15295;42.658;23.374;2023-07-13T23:09:32;14.98;;;7.53;;
27957;SDS011;15295;42.658;23.374;2023-07-13T23:11:58;17.08;;;7.78;;
27957;SDS011;15295;42.658;23.374;2023-07-13T23:14:31;17.80;;;7.82;;
27957;SDS011;15295;42.658;23.374;2023-07-13T23:17:19;17.35;;;7.82;;
27957;SDS011;15295;42.658;23.374;2023-07-13T23:20:00;15.90;;;7.50;;
27957;SDS011;15295;42.658;23.374;2023-07-13T23:22:38;13.90;;;7.30;;
27957;SDS011;15295;42.658;23.374;2023-07-13T23:25:14;12.55;;;8.02;;
27957;SDS011;15295;42.658;23.374;2023-07-13T23:30:29;16.10;;;7.70;;
27957;SDS011;15295;42.658;23.374;2023-07-13T23:33:16;15.35;;;7.65;;
27957;SDS011;15295;42.658;23.374;2023-07-13T23:35:53;15.63;;;7.55;;
27957;SDS011;15295;42.658;23.374;2023-07-13T23:38:34;15.77;;;7.55;;
27957;SDS011;15295;42.658;23.374;2023-07-13T23:44:24;20.48;;;7.75;;
27957;SDS011;15295;42.658;23.374;2023-07-13T23:47:42;19.73;;;7.82;;
27957;SDS011;15295;42.658;23.374;2023-07-13T23:53:32;17.00;;;8.05;;
27957;SDS011;15295;42.658;23.374;2023-07-13T23:56:21;13.68;;;7.65;;
27957;SDS011;15295;42.658;23.374;2023-07-13T23:59:08;14.70;;;7.75;;
